createdAt,value
2019-01-11T01:03:53.151Z,1.10
2019-01-11T01:06:21.816Z,1.10
2019-01-11T01:08:50.503Z,1.10
2019-01-11T01:11:19.167Z,1.10
2019-01-11T01:13:47.930Z,1.10
2019-01-11T01:16:16.608Z,1.00
2019-01-11T01:18:45.257Z,1.00
2019-01-11T01:21:13.992Z,1.00
2019-01-11T01:23:42.708Z,1.00
2019-01-11T01:26:11.336Z,1.00
2019-01-11T01:28:39.977Z,1.00
2019-01-11T01:31:08.700Z,0.90
2019-01-11T01:33:37.323Z,0.90
2019-01-11T01:36:05.974Z,0.90
2019-01-11T01:38:34.683Z,0.90
2019-01-11T01:41:04.844Z,0.90
2019-01-11T01:43:33.558Z,1.00
2019-01-11T01:46:02.212Z,1.00
2019-01-11T01:48:30.878Z,0.90
2019-01-11T01:50:59.552Z,0.90
2019-01-11T01:53:28.200Z,1.00
2019-01-11T01:55:56.954Z,1.00
2019-01-11T01:58:25.616Z,1.00
2019-01-11T02:00:54.258Z,1.00
2019-01-11T02:03:22.955Z,0.90
2019-01-11T02:05:51.656Z,0.90
2019-01-11T02:08:20.344Z,0.90
2019-01-11T02:10:49.003Z,0.80
2019-01-11T02:13:17.792Z,0.80
2019-01-11T02:15:46.445Z,0.70
2019-01-11T02:18:15.101Z,0.70
2019-01-11T02:20:43.835Z,0.70
2019-01-11T02:23:12.514Z,0.70
2019-01-11T02:25:46.176Z,0.70
2019-01-11T02:28:11.504Z,0.70
2019-01-11T02:30:40.214Z,0.70
2019-01-11T02:33:08.855Z,0.70
2019-01-11T02:35:37.536Z,0.70
2019-01-11T02:38:06.180Z,0.70
2019-01-11T02:40:34.850Z,0.70
2019-01-11T02:43:03.517Z,0.70
2019-01-11T02:45:32.231Z,0.70
2019-01-11T02:48:00.902Z,0.60
2019-01-11T02:50:29.592Z,0.60
2019-01-11T02:52:58.272Z,0.60
2019-01-11T02:55:26.923Z,0.60
2019-01-11T02:57:55.603Z,0.50
2019-01-11T03:00:24.315Z,0.60
2019-01-11T03:02:52.953Z,0.60
2019-01-11T03:05:21.810Z,0.60
2019-01-11T03:07:50.473Z,0.60
2019-01-11T03:10:20.996Z,0.60
2019-01-11T03:12:49.665Z,0.60
2019-01-11T03:15:18.436Z,0.50
2019-01-11T03:17:47.101Z,0.50
2019-01-11T03:20:17.261Z,0.50
2019-01-11T03:22:45.947Z,0.50
2019-01-11T03:25:15.915Z,0.50
2019-01-11T03:27:44.660Z,0.50
2019-01-11T03:30:18.778Z,0.50
2019-01-11T03:32:48.461Z,0.50
2019-01-11T03:35:18.619Z,0.50
2019-01-11T03:37:48.495Z,0.40
2019-01-11T03:40:22.020Z,0.40
2019-01-11T03:42:50.773Z,0.40
2019-01-11T03:45:21.343Z,0.40
2019-01-11T03:47:50.011Z,0.30
2019-01-11T03:50:20.151Z,0.30
2019-01-11T03:52:48.857Z,0.30
2019-01-11T03:55:17.913Z,0.30
2019-01-11T03:57:46.578Z,0.30
2019-01-11T04:00:22.376Z,0.40
2019-01-11T04:02:51.053Z,0.40
2019-01-11T04:05:19.726Z,0.30
2019-01-11T04:07:48.392Z,0.30
2019-01-11T04:10:18.962Z,0.40
2019-01-11T04:12:47.637Z,0.40
2019-01-11T04:15:18.483Z,0.40
2019-01-11T04:17:48.793Z,0.40
2019-01-11T04:20:18.908Z,0.40
2019-01-11T04:22:52.190Z,0.40
2019-01-11T04:25:22.449Z,0.30
2019-01-11T04:27:51.879Z,0.40
2019-01-11T04:30:20.769Z,0.30
2019-01-11T04:32:49.429Z,0.30
2019-01-11T04:35:18.136Z,0.30
2019-01-11T04:37:46.904Z,0.30
2019-01-11T04:40:16.201Z,0.30
2019-01-11T04:42:44.849Z,0.30
2019-01-11T04:45:13.520Z,0.30
2019-01-11T04:47:42.277Z,0.30
2019-01-11T04:50:16.137Z,0.30
2019-01-11T04:52:46.272Z,0.30
2019-01-11T04:55:15.621Z,0.20
2019-01-11T04:57:44.277Z,0.20
2019-01-11T05:00:16.166Z,0.20
2019-01-11T05:02:44.931Z,0.20
2019-01-11T05:05:13.636Z,0.20
2019-01-11T05:07:42.295Z,0.20
2019-01-11T05:10:13.655Z,0.20
2019-01-11T05:12:42.334Z,0.20
2019-01-11T05:15:11.005Z,0.20
2019-01-11T05:17:39.721Z,0.20
2019-01-11T05:20:16.763Z,0.20
2019-01-11T05:22:43.855Z,0.20
2019-01-11T05:25:12.513Z,0.30
2019-01-11T05:27:41.231Z,0.20
2019-01-11T05:30:15.077Z,0.20
2019-01-11T05:32:43.752Z,0.20
2019-01-11T05:35:12.501Z,0.20
2019-01-11T05:37:41.117Z,0.20
2019-01-11T05:40:12.938Z,0.20
2019-01-11T05:42:41.656Z,0.30
2019-01-11T05:45:10.446Z,0.30
2019-01-11T05:47:39.109Z,0.20
2019-01-11T05:50:11.281Z,0.20
2019-01-11T05:52:40.267Z,0.30
2019-01-11T05:55:10.804Z,0.40
2019-01-11T05:57:41.058Z,0.40
2019-01-11T06:00:11.406Z,0.40
2019-01-11T06:02:40.064Z,0.40
2019-01-11T06:05:10.304Z,0.40
2019-01-11T06:07:40.648Z,0.30
2019-01-11T06:10:12.554Z,0.30
2019-01-11T06:12:41.200Z,0.30
2019-01-11T06:15:09.809Z,0.30
2019-01-11T06:17:38.484Z,0.30
2019-01-11T06:20:10.311Z,0.30
2019-01-11T06:22:39.032Z,0.30
2019-01-11T06:25:07.764Z,0.30
2019-01-11T06:27:37.090Z,0.40
2019-01-11T06:30:09.052Z,0.40
2019-01-11T06:32:37.717Z,0.40
2019-01-11T06:35:06.550Z,0.40
2019-01-11T06:37:35.232Z,0.40
2019-01-11T06:40:05.879Z,0.40
2019-01-11T06:42:34.564Z,0.50
2019-01-11T06:45:03.231Z,0.40
2019-01-11T06:47:31.963Z,0.40
2019-01-11T06:50:00.642Z,0.40
2019-01-11T06:52:29.341Z,0.40
2019-01-11T06:54:58.051Z,0.40
2019-01-11T06:57:26.792Z,0.40
2019-01-11T06:59:55.456Z,0.40
2019-01-11T07:02:24.135Z,0.40
2019-01-11T07:04:52.808Z,0.40
2019-01-11T07:07:21.471Z,0.40
2019-01-11T07:09:50.484Z,0.40
2019-01-11T07:12:19.780Z,0.30
2019-01-11T07:14:48.445Z,0.30
2019-01-11T07:17:17.117Z,0.40
2019-01-11T07:19:45.779Z,0.40
2019-01-11T07:22:15.700Z,0.40
2019-01-11T07:24:44.374Z,0.40
2019-01-11T07:27:13.048Z,0.40
2019-01-11T07:29:41.796Z,0.40
2019-01-11T07:32:10.490Z,0.40
2019-01-11T07:34:39.309Z,0.40
2019-01-11T07:37:08.012Z,0.40
2019-01-11T07:39:36.739Z,0.40
2019-01-11T07:42:05.392Z,0.50
2019-01-11T07:44:34.077Z,0.50
2019-01-11T07:47:02.770Z,0.50
2019-01-11T07:49:31.471Z,0.50
2019-01-11T07:52:00.131Z,0.50
2019-01-11T07:54:28.823Z,0.50
2019-01-11T07:56:58.625Z,0.60
2019-01-11T07:59:33.693Z,0.60
2019-01-11T08:02:02.352Z,0.60
2019-01-11T08:04:32.632Z,0.60
2019-01-11T08:07:01.256Z,0.60
2019-01-11T08:09:31.220Z,0.60
2019-01-11T08:12:04.254Z,0.50
2019-01-11T08:14:33.102Z,0.50
2019-01-11T08:17:01.758Z,0.50
2019-01-11T08:19:31.947Z,0.50
2019-01-11T08:22:02.273Z,0.50
2019-01-11T08:24:30.908Z,0.50
2019-01-11T08:26:59.715Z,0.50
2019-01-11T08:29:28.446Z,0.40
2019-01-11T08:31:57.148Z,0.40
2019-01-11T08:34:25.833Z,0.40
2019-01-11T08:36:54.532Z,0.40
2019-01-11T08:39:23.221Z,0.40
2019-01-11T08:41:51.933Z,0.40
2019-01-11T08:44:20.656Z,0.30
2019-01-11T08:46:49.313Z,0.30
2019-01-11T08:49:17.986Z,0.20
2019-01-11T08:51:49.607Z,0.10
2019-01-11T08:54:18.266Z,0.10
2019-01-11T08:56:47.119Z,0.10
2019-01-11T08:59:15.752Z,0.00
2019-01-11T09:01:44.464Z,0.00
2019-01-11T09:04:13.172Z,0.00
2019-01-11T09:06:41.847Z,0.10
2019-01-11T09:09:10.578Z,0.00
2019-01-11T09:11:39.263Z,0.00
2019-01-11T09:14:09.461Z,0.00
2019-01-11T09:16:38.124Z,0.00
2019-01-11T09:19:06.965Z,0.00
2019-01-11T09:21:41.432Z,0.10
2019-01-11T09:24:05.935Z,0.10
2019-01-11T09:26:34.640Z,0.10
2019-01-11T09:29:03.315Z,0.10
2019-01-11T09:31:32.075Z,0.20
2019-01-11T09:34:01.758Z,0.20
2019-01-11T09:36:30.453Z,0.20
2019-01-11T09:38:59.112Z,0.20
2019-01-11T09:41:27.794Z,0.20
2019-01-11T09:43:56.456Z,0.20
2019-01-11T09:46:25.112Z,0.30
2019-01-11T09:48:53.834Z,0.20
2019-01-11T09:51:22.503Z,0.30
2019-01-11T09:53:51.259Z,0.30
2019-01-11T09:56:19.916Z,0.30
2019-01-11T09:58:48.648Z,0.30
2019-01-11T10:01:17.525Z,0.30
2019-01-11T10:03:46.190Z,0.30
2019-01-11T10:06:14.890Z,0.30
2019-01-11T10:08:43.581Z,0.30
2019-01-11T10:11:13.563Z,0.40
2019-01-11T10:13:44.063Z,0.40
2019-01-11T10:16:12.720Z,0.40
2019-01-11T10:18:41.399Z,0.40
2019-01-11T10:21:10.078Z,0.40
2019-01-11T10:23:38.822Z,0.30
2019-01-11T10:26:07.478Z,0.30
2019-01-11T10:28:36.129Z,0.30
2019-01-11T10:31:04.876Z,0.30
2019-01-11T10:33:36.301Z,0.30
2019-01-11T10:36:04.009Z,0.30
2019-01-11T10:38:32.662Z,0.70
2019-01-11T10:41:01.383Z,0.60
2019-01-11T10:43:30.098Z,0.50
2019-01-11T10:46:03.120Z,0.40
2019-01-11T10:48:31.802Z,0.60
2019-01-11T10:51:00.437Z,0.70
2019-01-11T10:53:29.129Z,0.60
2019-01-11T10:55:57.788Z,0.80
2019-01-11T10:58:26.494Z,0.80
2019-01-11T11:00:55.208Z,0.70
2019-01-11T11:03:23.876Z,0.60
2019-01-11T11:05:52.554Z,0.60
2019-01-11T11:08:21.210Z,0.60
2019-01-11T11:10:49.922Z,0.60
2019-01-11T11:13:18.604Z,0.50
2019-01-11T11:15:48.920Z,0.40
2019-01-11T11:18:17.691Z,0.50
2019-01-11T11:20:46.373Z,0.70
2019-01-11T11:23:15.042Z,0.50
2019-01-11T11:25:43.697Z,0.70
2019-01-11T11:28:12.428Z,0.60
2019-01-11T11:30:41.086Z,0.60
2019-01-11T11:33:09.859Z,0.50
2019-01-11T11:35:38.531Z,0.50
2019-01-11T11:38:07.217Z,0.60
2019-01-11T11:40:35.932Z,0.60
2019-01-11T11:43:04.578Z,0.60
2019-01-11T11:45:33.352Z,0.60
2019-01-11T11:48:02.014Z,0.60
2019-01-11T11:50:30.754Z,0.70
2019-01-11T11:52:59.430Z,0.60
2019-01-11T11:55:28.157Z,0.60
2019-01-11T11:57:56.802Z,0.60
2019-01-11T12:00:27.029Z,0.70
2019-01-11T12:02:55.702Z,0.70
2019-01-11T12:05:24.412Z,0.70
2019-01-11T12:07:53.083Z,0.70
2019-01-11T12:10:24.607Z,0.70
2019-01-11T12:12:53.295Z,0.60
2019-01-11T12:15:23.356Z,0.60
2019-01-11T12:17:52.074Z,0.60
2019-01-11T12:20:26.679Z,0.60
2019-01-11T12:22:55.395Z,0.60
2019-01-11T12:25:24.069Z,0.50
2019-01-11T12:27:52.755Z,0.60
2019-01-11T12:30:21.421Z,0.50
2019-01-11T12:32:50.080Z,0.50
2019-01-11T12:35:18.741Z,0.60
2019-01-11T12:37:47.501Z,0.60
2019-01-11T12:40:16.186Z,0.50
2019-01-11T12:42:44.895Z,0.60
2019-01-11T12:45:15.280Z,0.60
2019-01-11T12:47:43.932Z,0.60
2019-01-11T12:50:15.777Z,0.60
2019-01-11T12:52:44.412Z,0.60
2019-01-11T12:55:13.172Z,0.60
2019-01-11T12:57:41.887Z,0.60
2019-01-11T13:00:13.863Z,0.50
2019-01-11T13:02:42.528Z,0.50
2019-01-11T13:05:13.518Z,0.50
2019-01-11T13:07:42.228Z,0.50
2019-01-11T13:10:13.672Z,0.50
2019-01-11T13:12:42.351Z,0.50
2019-01-11T13:15:13.545Z,0.50
2019-01-11T13:17:42.221Z,0.50
2019-01-11T13:20:13.344Z,0.50
2019-01-11T13:22:42.113Z,0.50
2019-01-11T13:25:10.834Z,0.50
2019-01-11T13:27:39.487Z,0.40
2019-01-11T13:30:11.283Z,0.40
2019-01-11T13:32:39.999Z,0.50
2019-01-11T13:35:08.676Z,0.50
2019-01-11T13:37:37.402Z,0.50
2019-01-11T13:40:12.649Z,0.50
2019-01-11T13:42:41.362Z,0.50
2019-01-11T13:45:12.832Z,0.50
2019-01-11T13:47:41.550Z,0.50
2019-01-11T13:50:16.304Z,0.50
2019-01-11T13:52:44.979Z,0.50
2019-01-11T13:55:13.732Z,0.50
2019-01-11T13:57:42.379Z,0.50
2019-01-11T14:00:14.680Z,0.50
2019-01-11T14:02:43.907Z,0.50
2019-01-11T14:05:12.605Z,0.50
2019-01-11T14:07:41.320Z,0.60
2019-01-11T14:10:10.250Z,0.60
2019-01-11T14:12:39.044Z,0.60
2019-01-11T14:15:10.004Z,0.50
2019-01-11T14:17:38.798Z,0.50
2019-01-11T14:20:10.129Z,0.50
2019-01-11T14:22:38.809Z,0.50
2019-01-11T14:25:09.340Z,0.50
2019-01-11T14:27:39.626Z,0.50
2019-01-11T14:30:13.990Z,0.50
2019-01-11T14:32:42.726Z,0.40
2019-01-11T14:35:11.413Z,0.40
2019-01-11T14:37:41.488Z,0.40
2019-01-11T14:40:13.354Z,0.50
2019-01-11T14:42:42.090Z,0.50
2019-01-11T14:45:14.826Z,0.50
2019-01-11T14:47:43.560Z,0.50
2019-01-11T14:50:14.407Z,0.50
2019-01-11T14:52:44.414Z,0.40
2019-01-11T14:55:13.232Z,0.30
2019-01-11T14:57:41.953Z,0.40
2019-01-11T15:00:18.614Z,0.50
2019-01-11T15:02:47.539Z,0.40
2019-01-11T15:05:16.957Z,0.40
2019-01-11T15:07:45.677Z,0.50
2019-01-11T15:10:15.661Z,0.50
2019-01-11T15:12:45.711Z,0.60
2019-01-11T15:15:15.958Z,0.60
2019-01-11T15:17:44.711Z,0.70
2019-01-11T15:20:15.739Z,0.70
2019-01-11T15:22:44.422Z,0.70
2019-01-11T15:25:13.103Z,0.80
2019-01-11T15:27:43.058Z,0.70
2019-01-11T15:30:14.661Z,0.70
2019-01-11T15:32:43.337Z,0.70
2019-01-11T15:35:11.933Z,0.70
2019-01-11T15:37:42.202Z,0.60
2019-01-11T15:40:22.174Z,0.60
2019-01-11T15:42:51.051Z,0.60
2019-01-11T15:45:20.024Z,0.60
2019-01-11T15:47:48.715Z,0.50
2019-01-11T15:50:45.767Z,0.50
2019-01-11T15:53:14.583Z,0.50
2019-01-11T15:55:43.302Z,0.40
2019-01-11T15:58:12.067Z,0.40
2019-01-11T16:00:42.952Z,0.40
2019-01-11T16:03:11.740Z,0.50
2019-01-11T16:05:40.429Z,0.50
2019-01-11T16:08:09.168Z,0.50
2019-01-11T16:10:39.464Z,0.50
2019-01-11T16:13:11.313Z,0.50
2019-01-11T16:15:46.869Z,0.50
2019-01-11T16:18:18.782Z,0.50
2019-01-11T16:20:47.470Z,0.50
2019-01-11T16:23:16.300Z,0.50
2019-01-11T16:25:45.102Z,0.60
2019-01-11T16:28:15.774Z,0.60
2019-01-11T16:30:44.411Z,0.60
2019-01-11T16:33:13.114Z,0.50
2019-01-11T16:35:41.781Z,0.50
2019-01-11T16:38:27.154Z,0.50
2019-01-11T16:40:55.847Z,0.50
2019-01-11T16:43:26.239Z,0.50
2019-01-11T16:45:56.037Z,0.60
2019-01-11T16:48:24.737Z,0.50
2019-01-11T16:50:53.424Z,0.60
2019-01-11T16:53:22.089Z,0.60
2019-01-11T16:55:50.811Z,0.60
2019-01-11T16:58:19.487Z,0.70
2019-01-11T17:00:48.194Z,0.80
2019-01-11T17:03:20.205Z,0.80
2019-01-11T17:05:48.861Z,0.70
2019-01-11T17:08:17.593Z,0.80
2019-01-11T17:10:49.301Z,0.80
2019-01-11T17:13:24.545Z,0.80
2019-01-11T17:15:53.521Z,0.80
2019-01-11T17:18:24.560Z,0.80
2019-01-11T17:20:54.804Z,0.80
2019-01-11T17:23:23.673Z,0.80
2019-01-11T17:25:56.521Z,0.90
2019-01-11T17:28:22.793Z,0.80
2019-01-11T17:30:51.573Z,0.80
2019-01-11T17:36:12.603Z,0.90
2019-01-11T17:38:51.971Z,0.80
2019-01-11T17:41:22.014Z,0.70
2019-01-11T17:43:50.712Z,0.70
2019-01-11T17:46:19.383Z,0.70
2019-01-11T17:51:47.903Z,0.50
2019-01-11T17:54:16.603Z,0.50
2019-01-11T17:56:51.371Z,0.40
2019-01-11T17:59:23.009Z,0.30
2019-01-11T18:01:51.958Z,0.30
2019-01-11T18:07:30.803Z,0.20
2019-01-11T18:10:01.437Z,0.20
2019-01-11T18:18:58.790Z,0.10
2019-01-11T18:21:23.273Z,0.10
2019-01-11T18:23:51.956Z,0.10
2019-01-11T18:26:36.305Z,0.10
2019-01-11T18:29:05.037Z,0.10
2019-01-11T18:31:33.673Z,0.10
2019-01-11T18:34:03.740Z,0.00
2019-01-11T18:36:32.412Z,0.10
2019-01-11T18:39:01.101Z,0.00
2019-01-11T18:41:29.767Z,0.10
2019-01-11T18:43:58.467Z,0.10
2019-01-11T18:46:27.337Z,0.00
2019-01-11T18:48:56.006Z,0.00
2019-01-11T18:51:26.000Z,0.00
2019-01-11T18:53:56.972Z,-0.10
2019-01-11T18:56:51.043Z,-0.20
2019-01-11T18:59:33.886Z,-0.20
2019-01-11T19:20:33.052Z,-0.30
2019-01-11T19:23:02.629Z,-0.30
2019-01-11T19:25:31.358Z,-0.30
2019-01-11T19:28:00.319Z,-0.40
2019-01-11T19:30:28.989Z,-0.50
2019-01-11T19:32:57.823Z,-0.70
2019-01-11T19:35:26.563Z,-0.70
2019-01-11T19:37:55.428Z,-0.60
2019-01-11T19:40:25.465Z,-0.60
2019-01-11T19:42:54.120Z,-0.60
2019-01-11T19:45:24.497Z,-0.60
2019-01-11T19:47:53.205Z,-0.60
2019-01-11T19:50:22.670Z,-0.70
2019-01-11T19:52:51.372Z,-0.80
2019-01-11T19:55:20.088Z,-0.80
2019-01-11T19:57:50.557Z,-0.90
2019-01-11T20:00:24.518Z,-0.90
2019-01-11T20:02:53.677Z,-1.00
2019-01-11T20:05:22.499Z,-1.00
2019-01-11T20:07:51.185Z,-1.00
2019-01-11T20:10:32.401Z,-1.00
2019-01-11T20:13:01.084Z,-0.90
2019-01-11T20:15:50.943Z,-0.90
2019-01-11T20:18:20.859Z,-0.90
2019-01-11T20:20:49.885Z,-0.90
2019-01-11T20:23:18.601Z,-0.90
2019-01-11T20:25:47.287Z,-1.00
2019-01-11T20:28:18.580Z,-1.00
2019-01-11T20:30:47.277Z,-1.10
2019-01-11T20:33:15.982Z,-1.20
2019-01-11T20:35:44.692Z,-1.20
2019-01-11T20:38:13.364Z,-1.30
2019-01-11T20:40:44.497Z,-1.30
2019-01-11T20:43:17.906Z,-1.40
2019-01-11T20:45:53.016Z,-1.50
2019-01-11T20:48:22.807Z,-1.50
2019-01-11T20:50:54.351Z,-1.50
2019-01-11T20:53:24.361Z,-1.50
2019-01-11T20:55:54.379Z,-1.50
2019-01-11T20:58:25.102Z,-1.60
2019-01-11T21:00:55.124Z,-1.60
2019-01-11T21:03:28.890Z,-1.60
2019-01-11T21:06:03.719Z,-1.60
2019-01-11T21:08:33.582Z,-1.60
2019-01-11T21:11:02.375Z,-1.60
2019-01-11T21:13:31.081Z,-1.60
2019-01-11T21:15:59.709Z,-1.60
2019-01-11T21:18:28.473Z,-1.70
2019-01-11T21:20:57.173Z,-1.60
2019-01-11T21:23:25.906Z,-1.70
2019-01-11T21:25:54.531Z,-1.70
2019-01-11T21:28:23.216Z,-1.70
2019-01-11T21:30:57.208Z,-1.70
2019-01-11T21:33:22.344Z,-1.70
2019-01-11T21:35:51.072Z,-1.70
2019-01-11T21:38:19.746Z,-1.60
2019-01-11T21:40:48.548Z,-1.60
2019-01-11T21:43:17.222Z,-1.60
2019-01-11T21:45:45.878Z,-1.60
2019-01-11T21:48:14.537Z,-1.60
2019-01-11T21:50:43.205Z,-1.60
2019-01-11T21:53:11.947Z,-1.60
2019-01-11T21:55:40.615Z,-1.70
2019-01-11T21:58:09.346Z,-1.60
2019-01-11T22:00:38.680Z,-1.60
2019-01-11T22:03:08.229Z,-1.50
2019-01-11T22:05:38.458Z,-1.60
2019-01-11T22:08:08.699Z,-1.50
2019-01-11T22:10:37.410Z,-1.50
2019-01-11T22:13:06.099Z,-1.50
2019-01-11T22:15:34.795Z,-1.60
2019-01-11T22:18:04.727Z,-1.60
2019-01-11T22:20:33.836Z,-1.60
2019-01-11T22:23:02.524Z,-1.60
2019-01-11T22:25:31.207Z,-1.70
2019-01-11T22:27:59.927Z,-1.60
2019-01-11T22:30:30.419Z,-1.70
2019-01-11T22:32:58.916Z,-1.60
2019-01-11T22:35:27.574Z,-1.60
2019-01-11T22:37:56.252Z,-1.60
2019-01-11T22:40:25.017Z,-1.60
2019-01-11T22:42:56.004Z,-1.60
2019-01-11T22:45:24.732Z,-1.60
2019-01-11T22:47:54.972Z,-1.70
2019-01-11T22:50:23.780Z,-1.70
2019-01-11T22:52:52.583Z,-1.90
2019-01-11T22:55:21.252Z,-2.00
2019-01-11T22:57:50.582Z,-2.00
2019-01-11T23:00:41.172Z,-2.10
2019-01-11T23:03:18.946Z,-1.90
2019-01-11T23:05:48.613Z,-1.80
2019-01-11T23:08:18.890Z,-1.60
2019-01-11T23:11:13.447Z,-1.60
2019-01-11T23:13:42.257Z,-1.80
2019-01-11T23:16:14.053Z,-2.10
2019-01-11T23:18:42.729Z,-2.30
2019-01-11T23:21:11.540Z,-2.60
2019-01-11T23:23:42.976Z,-2.70
2019-01-11T23:26:11.697Z,-2.70
2019-01-11T23:28:40.379Z,-2.80
2019-01-11T23:31:09.043Z,-2.90
2019-01-11T23:33:37.797Z,-2.90
2019-01-11T23:36:06.499Z,-2.90
2019-01-11T23:38:35.282Z,-2.90
2019-01-11T23:41:03.972Z,-3.10
2019-01-11T23:43:32.745Z,-3.10
2019-01-11T23:46:01.378Z,-3.20
2019-01-11T23:48:30.043Z,-3.30
2019-01-11T23:50:58.762Z,-3.30
2019-01-11T23:53:27.556Z,-3.30
2019-01-11T23:55:56.219Z,-3.40
2019-01-11T23:58:24.915Z,-3.50
